Ausonia, Argentina
Current Conditions -  °F | °C
As of 1:00 AM on Friday 21 Nov 2014 (Local Time) from SAOC Reporting Station
Moderate Rain Moderate Rain  
Wind Chill: 54°   Ceiling: 3000
Heat Index: 54°   Visibility: 3mi
Dew Point: 54°   Wind: 5mph
Humidity: 100%   Direction: 230°SW
Pressure: 30.09"   Gusts: NA
Location:  32.35°S, 63.22°W
Report Text: SAOC 210400Z 23004KT 5000 RA FEW020 OVC03012/12 Q1019
Loading
Personal Weather Stations






























Interactive Weather Map New forecast layout! Learn more

10-Day Weather Forecast

Advertisements
Track Severe Weather on mobile